Time;durP1;ratioP1;P1;durP2;ratioP2;P2;SDS_P1;SDS_P2;PMS_P1;PMS_P2;Temp;Humidity;BMP_temperature;BMP_pressure;BME280_temperature;BME280_humidity;BME280_pressure;Samples;Min_cycle;Max_cycle;Signal;HPM_P1;HPM_P2
2021/03/11 00:00:57;;;;;;;15.82;10.32;;;8.10;85.10;;;;;;5074844;28;20078;-71
2021/03/11 00:03:24;;;;;;;17.30;10.70;;;8.10;85.10;;;;;;5074812;28;20013;-72
2021/03/11 00:05:49;;;;;;;15.35;9.75;;;8.20;84.80;;;;;;5073202;28;20472;-72
2021/03/11 00:08:15;;;;;;;16.17;10.65;;;8.20;84.70;;;;;;5074620;28;20040;-72
2021/03/11 00:10:41;;;;;;;13.88;9.68;;;8.20;85.00;;;;;;5074962;28;20024;-71
2021/03/11 00:13:08;;;;;;;15.48;10.90;;;8.20;84.80;;;;;;5074536;28;20020;-71
2021/03/11 00:15:35;;;;;;;14.02;9.00;;;8.20;84.60;;;;;;5073142;28;20024;-71
2021/03/11 00:18:01;;;;;;;14.63;9.30;;;8.20;85.00;;;;;;5073510;28;20028;-71
2021/03/11 00:20:28;;;;;;;15.60;10.18;;;8.20;84.80;;;;;;5073149;28;20484;-71
2021/03/11 00:22:54;;;;;;;14.55;9.65;;;8.20;84.60;;;;;;5074604;28;20032;-72
2021/03/11 00:25:23;;;;;;;15.20;8.50;;;8.20;84.60;;;;;;5072999;28;20477;-71
2021/03/11 00:27:50;;;;;;;15.40;9.82;;;8.20;85.10;;;;;;5074275;28;20400;-71
2021/03/11 00:30:17;;;;;;;15.95;9.30;;;8.20;84.90;;;;;;5074156;28;20020;-71
2021/03/11 00:32:43;;;;;;;16.10;9.27;;;8.20;84.80;;;;;;5074422;28;20039;-71
2021/03/11 00:35:10;;;;;;;15.50;10.05;;;8.20;84.70;;;;;;5072914;28;20025;-71
2021/03/11 00:37:37;;;;;;;15.57;9.88;;;8.20;84.90;;;;;;5074093;28;20025;-71
2021/03/11 00:40:05;;;;;;;15.23;10.30;;;8.20;84.60;;;;;;5072743;28;20117;-71
2021/03/11 00:42:31;;;;;;;16.13;10.27;;;8.20;84.50;;;;;;5072802;28;20507;-71
2021/03/11 00:44:57;;;;;;;16.58;10.23;;;8.20;84.20;;;;;;5072611;28;20017;-72
2021/03/11 00:47:23;;;;;;;17.17;9.95;;;8.20;84.00;;;;;;5073936;28;20107;-71
2021/03/11 00:49:49;;;;;;;16.38;10.30;;;8.20;84.00;;;;;;5073830;28;20468;-72
2021/03/11 00:52:15;;;;;;;15.52;9.88;;;8.30;84.00;;;;;;5073847;28;20017;-71
2021/03/11 00:54:41;;;;;;;15.30;10.45;;;8.20;84.00;;;;;;5073745;28;20021;-71
2021/03/11 00:57:07;;;;;;;15.77;10.30;;;8.20;84.30;;;;;;5072525;28;20491;-71
2021/03/11 00:59:33;;;;;;;15.40;10.02;;;8.30;84.20;;;;;;5072632;28;20021;-71
2021/03/11 01:01:59;;;;;;;14.30;9.45;;;8.20;84.50;;;;;;5072434;28;20399;-72
2021/03/11 01:04:25;;;;;;;13.85;8.70;;;8.20;84.50;;;;;;5072241;28;20108;-72
2021/03/11 01:06:50;;;;;;;14.10;9.38;;;8.20;84.40;;;;;;5072317;28;20027;-71
2021/03/11 01:09:16;;;;;;;14.48;9.68;;;8.30;84.30;;;;;;5073562;28;20041;-71
2021/03/11 01:11:42;;;;;;;14.43;8.98;;;8.30;84.00;;;;;;5073657;28;20024;-71
2021/03/11 01:14:08;;;;;;;16.33;9.75;;;8.30;84.00;;;;;;5073709;28;20036;-71
2021/03/11 01:16:34;;;;;;;14.13;9.10;;;8.30;83.80;;;;;;5071762;28;20032;-71
2021/03/11 01:18:59;;;;;;;13.52;8.82;;;8.30;83.80;;;;;;5073450;28;20060;-71
2021/03/11 01:21:25;;;;;;;12.68;8.73;;;8.30;83.70;;;;;;5073228;28;20052;-71
2021/03/11 01:23:51;;;;;;;14.68;9.25;;;8.30;83.90;;;;;;5071900;28;20035;-71
2021/03/11 01:26:16;;;;;;;13.13;9.27;;;8.40;83.80;;;;;;5072016;28;20052;-71
2021/03/11 01:28:42;;;;;;;14.57;9.20;;;8.40;83.70;;;;;;5071839;28;20028;-71
2021/03/11 01:31:08;;;;;;;13.98;9.05;;;8.40;83.60;;;;;;5073286;28;20361;-72
2021/03/11 01:33:33;;;;;;;13.52;9.60;;;8.40;83.80;;;;;;5071895;28;20028;-71
2021/03/11 01:35:59;;;;;;;11.35;7.95;;;8.40;83.90;;;;;;5073139;28;20082;-71
2021/03/11 01:38:24;;;;;;;13.82;9.30;;;8.40;84.20;;;;;;5071733;28;20545;-71
2021/03/11 01:40:52;;;;;;;13.63;9.15;;;8.40;84.30;;;;;;5073490;28;20032;-73
2021/03/11 01:43:18;;;;;;;14.13;9.63;;;8.40;84.20;;;;;;5071827;28;20388;-71
2021/03/11 01:45:43;;;;;;;13.27;9.20;;;8.40;84.10;;;;;;5071616;28;20029;-72
2021/03/11 01:48:09;;;;;;;14.13;9.68;;;8.50;84.20;;;;;;5073138;28;20065;-71
2021/03/11 01:50:35;;;;;;;11.55;8.43;;;8.50;84.30;;;;;;5073235;28;20021;-72
2021/03/11 01:53:01;;;;;;;11.35;7.97;;;8.50;84.30;;;;;;5073233;28;20024;-71
2021/03/11 01:55:28;;;;;;;11.00;8.00;;;8.50;84.60;;;;;;5071467;28;20529;-72
2021/03/11 01:57:55;;;;;;;12.02;8.52;;;8.50;84.60;;;;;;5071494;28;20029;-72
2021/03/11 02:00:21;;;;;;;13.15;9.82;;;8.50;84.60;;;;;;5071530;28;20036;-72
2021/03/11 02:02:47;;;;;;;15.25;10.05;;;8.50;84.50;;;;;;5072926;28;20107;-71
2021/03/11 02:05:17;;;;;;;13.82;9.65;;;8.50;84.70;;;;;;5072787;28;20043;-71
2021/03/11 02:07:43;;;;;;;12.27;9.00;;;8.40;84.60;;;;;;5072692;28;20032;-72
2021/03/11 02:10:12;;;;;;;12.60;9.02;;;8.50;84.60;;;;;;5072689;28;20408;-71
2021/03/11 02:13:12;;;;;;;13.23;9.18;;;8.50;84.50;;;;;;5072810;28;20024;-71
2021/03/11 02:15:46;;;;;;;11.70;8.90;;;8.50;84.50;;;;;;5072168;28;20122;-72
2021/03/11 02:18:24;;;;;;;11.73;8.27;;;8.50;84.80;;;;;;5071436;28;20511;-71
2021/03/11 02:20:59;;;;;;;10.73;7.72;;;8.50;84.70;;;;;;5071390;28;20029;-71
2021/03/11 02:24:02;;;;;;;11.40;8.20;;;8.50;84.90;;;;;;5071410;28;20032;-71
2021/03/11 02:26:53;;;;;;;12.55;8.18;;;8.50;84.90;;;;;;5072548;28;20036;-71
2021/03/11 02:29:35;;;;;;;12.15;8.63;;;8.50;84.80;;;;;;5075328;28;20032;-71
2021/03/11 02:32:04;;;;;;;10.98;7.30;;;8.50;85.00;;;;;;5075420;28;20021;-72
2021/03/11 02:34:36;;;;;;;8.80;6.65;;;8.50;85.00;;;;;;5075089;28;20032;-71
2021/03/11 02:37:09;;;;;;;9.65;7.05;;;8.50;85.30;;;;;;5076474;28;20100;-71
2021/03/11 02:39:37;;;;;;;12.15;7.90;;;8.60;85.40;;;;;;5076476;28;20024;-71
2021/03/11 02:42:04;;;;;;;10.13;7.00;;;8.50;85.30;;;;;;5075052;28;20025;-71
2021/03/11 02:44:30;;;;;;;9.77;7.07;;;8.50;85.40;;;;;;5075114;28;20036;-72
2021/03/11 02:46:57;;;;;;;9.82;7.03;;;8.50;85.30;;;;;;5076330;28;20033;-71
2021/03/11 02:49:23;;;;;;;8.82;6.68;;;8.60;85.40;;;;;;5076555;28;20047;-71
2021/03/11 02:51:51;;;;;;;8.95;6.63;;;8.60;85.40;;;;;;5074861;28;20021;-72
2021/03/11 02:54:18;;;;;;;9.95;6.45;;;8.50;85.30;;;;;;5074868;28;20028;-71
2021/03/11 02:56:45;;;;;;;7.85;5.80;;;8.60;85.70;;;;;;5076076;28;20036;-72
2021/03/11 02:59:12;;;;;;;8.18;6.80;;;8.60;85.60;;;;;;5076009;28;20028;-71
2021/03/11 03:01:39;;;;;;;9.43;7.10;;;8.60;85.60;;;;;;5075918;28;20361;-71
2021/03/11 03:04:06;;;;;;;8.20;6.68;;;8.60;85.60;;;;;;5074489;28;20043;-71
2021/03/11 03:06:33;;;;;;;8.40;6.80;;;8.60;85.50;;;;;;5074466;28;20028;-72
2021/03/11 03:08:59;;;;;;;7.88;6.60;;;8.60;85.60;;;;;;5074448;28;20344;-71
2021/03/11 03:11:25;;;;;;;8.35;6.40;;;8.70;85.60;;;;;;5075940;28;20089;-71
2021/03/11 03:13:52;;;;;;;7.40;6.00;;;8.70;85.50;;;;;;5075775;28;20111;-71
2021/03/11 03:16:18;;;;;;;7.88;6.03;;;8.70;85.60;;;;;;5075647;28;20383;-71
2021/03/11 03:18:45;;;;;;;7.32;6.20;;;8.70;85.50;;;;;;5074431;28;20391;-71
2021/03/11 03:21:12;;;;;;;8.32;6.22;;;8.70;85.60;;;;;;5076127;28;20452;-71
2021/03/11 03:23:43;;;;;;;6.95;5.50;;;8.70;85.60;;;;;;5075803;28;20028;-71
2021/03/11 03:26:09;;;;;;;8.30;6.28;;;8.70;85.50;;;;;;5074179;28;20029;-71
2021/03/11 03:28:35;;;;;;;6.97;5.95;;;8.70;85.60;;;;;;5074146;28;20021;-71
2021/03/11 03:31:01;;;;;;;8.07;6.03;;;8.80;85.50;;;;;;5075431;28;20032;-71
2021/03/11 03:33:27;;;;;;;7.50;5.88;;;8.80;85.80;;;;;;5075324;28;20044;-72
2021/03/11 03:35:53;;;;;;;7.35;5.80;;;8.80;85.80;;;;;;5074075;28;20026;-71
2021/03/11 03:38:19;;;;;;;7.53;6.28;;;8.80;85.90;;;;;;5073768;28;20032;-72
2021/03/11 03:40:45;;;;;;;8.38;6.25;;;8.80;86.00;;;;;;5075011;28;20392;-71
2021/03/11 03:43:21;;;;;;;7.93;6.22;;;8.80;86.20;;;;;;5075339;28;20396;-72
2021/03/11 03:46:14;;;;;;;7.93;6.30;;;8.80;86.50;;;;;;5075027;28;20035;-71
2021/03/11 03:48:53;;;;;;;8.15;6.22;;;8.80;86.70;;;;;;5073921;28;20480;-72
2021/03/11 03:51:23;;;;;;;6.78;6.07;;;8.80;86.90;;;;;;5075116;28;20025;-71
2021/03/11 03:53:52;;;;;;;6.63;5.65;;;8.80;86.90;;;;;;5075170;28;20090;-72
2021/03/11 03:56:33;;;;;;;8.15;6.82;;;8.80;87.00;;;;;;5073810;28;20115;-71
2021/03/11 03:59:05;;;;;;;9.00;6.95;;;8.80;87.10;;;;;;5073718;28;20032;-72
2021/03/11 04:01:34;;;;;;;7.45;5.90;;;8.80;87.20;;;;;;5073627;28;20078;-71
2021/03/11 04:04:02;;;;;;;8.48;6.15;;;8.80;87.30;;;;;;5073607;28;20021;-71
2021/03/11 04:06:30;;;;;;;7.57;6.18;;;8.80;87.40;;;;;;5073524;28;20020;-71
2021/03/11 04:08:56;;;;;;;7.40;6.05;;;8.80;87.60;;;;;;5073259;28;20052;-71
2021/03/11 04:11:22;;;;;;;9.27;6.82;;;8.80;87.70;;;;;;5074771;28;20107;-72
2021/03/11 04:13:50;;;;;;;6.50;5.60;;;8.80;87.60;;;;;;5074871;28;20059;-72
2021/03/11 04:16:17;;;;;;;16.70;6.50;;;8.90;87.80;;;;;;5073398;28;20029;-71
2021/03/11 04:18:43;;;;;;;7.45;5.90;;;8.90;87.80;;;;;;5073403;28;20495;-71
2021/03/11 04:21:09;;;;;;;7.88;5.78;;;8.90;87.80;;;;;;5075296;28;20058;-71
2021/03/11 04:23:37;;;;;;;7.20;5.82;;;8.90;87.80;;;;;;5073402;28;20033;-71
2021/03/11 04:26:04;;;;;;;7.75;6.13;;;8.90;87.80;;;;;;5073257;28;20503;-72
2021/03/11 04:28:31;;;;;;;6.80;5.53;;;8.90;87.80;;;;;;5073266;28;20039;-71
2021/03/11 04:30:57;;;;;;;6.50;5.30;;;8.90;87.70;;;;;;5073012;28;20074;-71
2021/03/11 04:33:24;;;;;;;7.03;6.05;;;8.90;87.70;;;;;;5073000;28;20029;-71
2021/03/11 04:35:51;;;;;;;7.15;5.90;;;9.00;87.80;;;;;;5074271;28;20151;-71
2021/03/11 04:38:17;;;;;;;7.55;6.00;;;9.00;87.70;;;;;;5074299;28;20037;-72
2021/03/11 04:40:43;;;;;;;7.53;5.95;;;9.00;87.80;;;;;;5072737;28;20456;-71
2021/03/11 04:43:09;;;;;;;7.70;6.28;;;9.10;87.80;;;;;;5072731;28;20028;-71
2021/03/11 04:45:35;;;;;;;8.60;6.60;;;9.10;87.90;;;;;;5072496;28;20028;-71
2021/03/11 04:48:02;;;;;;;6.90;5.80;;;9.00;87.70;;;;;;5074407;28;20460;-71
2021/03/11 04:50:29;;;;;;;7.05;6.03;;;9.10;87.80;;;;;;5072880;28;20470;-72
2021/03/11 04:52:57;;;;;;;8.15;6.38;;;9.10;87.80;;;;;;5072449;28;20539;-71
2021/03/11 04:55:23;;;;;;;8.18;6.50;;;9.20;87.80;;;;;;5072440;28;20452;-71
2021/03/11 04:57:49;;;;;;;7.93;6.72;;;9.20;87.80;;;;;;5072438;28;20029;-72
2021/03/11 05:00:16;;;;;;;7.93;6.38;;;9.20;87.90;;;;;;5072346;28;20495;-71
2021/03/11 05:02:44;;;;;;;8.77;6.68;;;9.20;87.80;;;;;;5072247;28;20054;-73
2021/03/11 05:05:11;;;;;;;8.15;6.70;;;9.20;88.00;;;;;;5073688;28;20028;-72
2021/03/11 05:07:36;;;;;;;9.05;6.80;;;9.30;87.90;;;;;;5073613;28;20028;-72
2021/03/11 05:10:03;;;;;;;8.38;6.00;;;9.30;87.80;;;;;;5072406;28;20510;-72
2021/03/11 05:12:28;;;;;;;10.25;6.82;;;9.30;87.80;;;;;;5072180;28;20098;-72
2021/03/11 05:14:54;;;;;;;12.07;8.05;;;9.30;87.90;;;;;;5072273;28;20064;-71
2021/03/11 05:17:20;;;;;;;8.70;7.00;;;9.40;88.00;;;;;;5072188;28;20036;-71
2021/03/11 05:19:46;;;;;;;9.13;7.10;;;9.40;87.90;;;;;;5073417;28;20032;-71
2021/03/11 05:22:12;;;;;;;9.38;7.30;;;9.40;87.90;;;;;;5073550;28;20392;-72
2021/03/11 05:24:37;;;;;;;9.63;7.47;;;9.40;87.80;;;;;;5072028;28;20060;-71
2021/03/11 05:27:03;;;;;;;11.20;7.90;;;9.40;87.90;;;;;;5072053;28;20027;-72
2021/03/11 05:29:29;;;;;;;9.77;6.70;;;9.50;88.10;;;;;;5073063;28;20103;-72
2021/03/11 05:31:55;;;;;;;8.80;6.38;;;9.50;88.00;;;;;;5073579;28;20052;-72
2021/03/11 05:34:20;;;;;;;10.15;7.18;;;9.60;87.80;;;;;;5071887;28;20043;-72
2021/03/11 05:36:46;;;;;;;10.40;7.05;;;9.60;87.80;;;;;;5071871;28;20033;-72
2021/03/11 05:39:12;;;;;;;10.05;7.43;;;9.60;87.70;;;;;;5073406;28;20085;-72
2021/03/11 05:41:40;;;;;;;10.00;6.32;;;9.60;87.60;;;;;;5073081;28;20493;-72
2021/03/11 05:44:07;;;;;;;9.43;6.88;;;9.60;88.20;;;;;;5071582;28;20029;-72
2021/03/11 05:46:38;;;;;;;8.48;6.40;;;9.60;87.50;;;;;;5071615;28;20025;-71
2021/03/11 05:49:05;;;;;;;10.38;7.20;;;9.70;87.50;;;;;;5073534;28;20063;-72
2021/03/11 05:51:30;;;;;;;10.25;7.10;;;9.70;87.60;;;;;;5072805;28;20031;-72
2021/03/11 05:53:58;;;;;;;9.10;6.40;;;9.60;87.80;;;;;;5071581;28;20380;-72
2021/03/11 05:56:24;;;;;;;8.30;6.70;;;9.70;87.90;;;;;;5071541;28;20035;-72
2021/03/11 05:58:50;;;;;;;8.48;6.57;;;9.70;88.00;;;;;;5073429;28;20475;-72
2021/03/11 06:01:18;;;;;;;8.40;6.47;;;9.70;88.10;;;;;;5071566;28;20017;-72
2021/03/11 06:03:47;;;;;;;10.85;6.53;;;9.70;88.30;;;;;;5072710;28;20474;-72
2021/03/11 06:06:14;;;;;;;10.23;6.97;;;9.70;88.20;;;;;;5072912;28;20039;-72
2021/03/11 06:08:40;;;;;;;9.25;6.30;;;9.70;88.40;;;;;;5072732;28;20040;-72
2021/03/11 06:11:08;;;;;;;7.90;5.97;;;9.70;88.40;;;;;;5071595;28;20090;-71
2021/03/11 06:13:34;;;;;;;8.57;5.65;;;9.70;88.30;;;;;;5072905;28;20361;-71
2021/03/11 06:16:11;;;;;;;6.82;5.82;;;9.70;88.20;;;;;;5072826;28;20107;-71
2021/03/11 06:18:38;;;;;;;8.93;6.55;;;9.80;88.20;;;;;;5071520;28;20020;-71
2021/03/11 06:21:04;;;;;;;9.25;5.85;;;9.80;88.00;;;;;;5071534;28;20112;-71
2021/03/11 06:23:30;;;;;;;7.63;5.30;;;9.80;87.90;;;;;;5071568;28;20024;-71
2021/03/11 06:25:57;;;;;;;6.75;4.82;;;9.80;87.90;;;;;;5073252;28;20029;-71
2021/03/11 06:28:45;;;;;;;8.68;6.28;;;9.90;87.90;;;;;;5071348;28;20024;-71
2021/03/11 06:31:17;;;;;;;8.77;6.38;;;9.90;87.90;;;;;;5072544;28;20037;-71
2021/03/11 06:33:43;;;;;;;8.18;6.07;;;9.90;87.90;;;;;;5071323;28;20482;-71
2021/03/11 06:36:23;;;;;;;9.27;6.20;;;9.90;87.80;;;;;;5071298;28;20498;-71
2021/03/11 06:38:49;;;;;;;12.02;7.75;;;10.00;87.80;;;;;;5071324;28;20387;-71
2021/03/11 06:41:15;;;;;;;9.27;7.95;;;10.00;87.90;;;;;;5072447;28;20024;-72
2021/03/11 06:43:51;;;;;;;9.98;7.18;;;10.00;88.30;;;;;;5072888;28;20033;-71
2021/03/11 06:46:17;;;;;;;8.52;6.10;;;10.10;87.80;;;;;;5072529;28;20040;-71
2021/03/11 06:48:43;;;;;;;9.50;6.10;;;10.10;87.60;;;;;;5072604;28;20032;-71
2021/03/11 06:51:17;;;;;;;8.27;5.28;;;10.10;87.60;;;;;;5071030;28;20114;-71
2021/03/11 06:54:00;;;;;;;7.25;5.28;;;10.20;87.50;;;;;;5072233;28;20031;-71
2021/03/11 06:56:27;;;;;;;8.82;5.40;;;10.20;87.30;;;;;;5070933;28;20139;-71
2021/03/11 06:58:56;;;;;;;7.97;5.72;;;10.20;87.20;;;;;;5070805;28;20428;-71
2021/03/11 07:01:24;;;;;;;7.05;5.50;;;10.30;87.20;;;;;;5073100;28;20037;-71
2021/03/11 07:03:50;;;;;;;10.10;5.82;;;10.30;87.10;;;;;;5072654;28;20035;-72
2021/03/11 07:06:27;;;;;;;7.22;5.30;;;10.30;87.10;;;;;;5070814;28;20119;-71
2021/03/11 07:08:54;;;;;;;7.03;4.95;;;10.30;87.10;;;;;;5070577;28;20077;-71
2021/03/11 07:11:20;;;;;;;6.80;5.28;;;10.30;87.00;;;;;;5070710;28;20040;-71
2021/03/11 07:13:46;;;;;;;8.10;5.63;;;10.30;87.00;;;;;;5072459;28;20024;-71
2021/03/11 07:16:16;;;;;;;6.82;5.22;;;10.30;87.00;;;;;;5074426;28;20032;-71
2021/03/11 07:18:43;;;;;;;6.25;4.82;;;10.30;86.80;;;;;;5075789;28;20098;-70
2021/03/11 07:21:09;;;;;;;6.60;4.28;;;10.30;86.70;;;;;;5074282;28;20039;-71
2021/03/11 07:23:49;;;;;;;7.78;4.22;;;10.30;86.50;;;;;;5074311;28;20089;-71
2021/03/11 07:26:16;;;;;;;6.05;3.47;;;10.40;86.20;;;;;;5075718;28;20060;-72
2021/03/11 07:28:42;;;;;;;5.80;3.53;;;10.40;85.50;;;;;;5074248;28;20025;-72
2021/03/11 07:31:09;;;;;;;9.70;3.72;;;10.40;85.00;;;;;;5075699;28;20032;-72
2021/03/11 07:33:38;;;;;;;6.18;2.90;;;10.50;84.20;;;;;;5074190;28;20468;-72
2021/03/11 07:36:09;;;;;;;6.38;3.00;;;10.60;83.90;;;;;;5075864;28;20433;-73
2021/03/11 07:38:35;;;;;;;7.78;3.05;;;10.60;83.40;;;;;;5074117;28;20120;-73
2021/03/11 07:41:03;;;;;;;8.88;3.65;;;10.70;82.90;;;;;;5074126;28;20059;-72
2021/03/11 07:43:30;;;;;;;8.82;3.10;;;10.70;82.20;;;;;;5074028;28;20206;-73
2021/03/11 07:46:00;;;;;;;7.88;3.45;;;10.70;82.20;;;;;;5075242;28;20032;-73
2021/03/11 07:48:26;;;;;;;9.00;3.10;;;10.80;81.90;;;;;;5075228;28;20104;-73
2021/03/11 07:50:52;;;;;;;8.60;3.20;;;10.90;81.80;;;;;;5073762;28;20116;-73
2021/03/11 07:53:20;;;;;;;5.70;2.40;;;11.00;81.60;;;;;;5075366;28;20025;-73
2021/03/11 07:55:47;;;;;;;7.70;3.00;;;11.00;81.80;;;;;;5073807;28;20024;-72
2021/03/11 07:58:19;;;;;;;7.18;2.75;;;11.10;81.80;;;;;;5073674;28;20386;-72
2021/03/11 08:00:45;;;;;;;4.45;2.70;;;11.20;81.80;;;;;;5075109;28;20086;-72
2021/03/11 08:03:23;;;;;;;5.85;2.70;;;11.30;81.70;;;;;;5074105;28;20028;-74
2021/03/11 08:05:49;;;;;;;9.00;3.13;;;11.30;81.60;;;;;;5073761;28;20386;-72
2021/03/11 08:08:17;;;;;;;5.45;2.67;;;11.40;81.40;;;;;;5073652;28;20025;-72
2021/03/11 08:10:55;;;;;;;6.10;2.47;;;11.40;81.20;;;;;;5074840;28;20621;-73
2021/03/11 08:13:23;;;;;;;8.73;2.88;;;11.40;80.80;;;;;;5075152;28;20097;-72
2021/03/11 08:15:50;;;;;;;8.88;3.22;;;11.40;80.00;;;;;;5073490;28;20135;-72
2021/03/11 08:18:33;;;;;;;8.15;3.40;;;11.50;80.10;;;;;;5074682;28;20123;-72
2021/03/11 08:20:59;;;;;;;;;;;11.50;79.50;;;;;;5075066;28;20134;-72
2021/03/11 08:23:32;;;;;;;7.22;2.53;;;11.60;78.50;;;;;;5074608;28;20091;-73
2021/03/11 08:25:59;;;;;;;12.95;2.95;;;11.60;78.20;;;;;;5075062;28;20042;-74
2021/03/11 08:28:30;;;;;;;7.57;2.72;;;11.70;75.90;;;;;;5074594;28;20429;-74
2021/03/11 08:31:02;;;;;;;9.18;2.10;;;11.70;75.90;;;;;;5073256;28;20081;-73
2021/03/11 08:33:28;;;;;;;10.48;2.53;;;11.80;76.30;;;;;;5074544;28;20036;-74
2021/03/11 08:35:55;;;;;;;13.32;3.72;;;11.90;75.00;;;;;;5074571;28;20033;-73
2021/03/11 08:38:21;;;;;;;14.43;2.72;;;11.90;73.90;;;;;;5073203;28;20036;-75
2021/03/11 08:41:08;;;;;;;10.00;2.92;;;11.90;73.50;;;;;;5073056;28;20498;-77
2021/03/11 08:43:37;;;;;;;11.80;2.88;;;12.00;73.60;;;;;;5074440;28;20055;-76
2021/03/11 08:46:10;;;;;;;10.07;2.45;;;12.00;72.20;;;;;;5073485;28;20039;-76
2021/03/11 08:48:50;;;;;;;8.02;2.13;;;12.10;72.00;;;;;;5073335;28;20115;-76
2021/03/11 08:51:22;;;;;;;12.73;2.80;;;12.10;72.20;;;;;;5072786;28;20032;-76
2021/03/11 08:53:51;;;;;;;12.43;2.70;;;12.20;70.80;;;;;;5072788;28;20127;-76
2021/03/11 08:56:37;;;;;;;13.85;2.92;;;12.20;71.50;;;;;;5072953;28;20028;-76
2021/03/11 08:59:06;;;;;;;11.80;2.70;;;12.30;69.30;;;;;;5071927;28;20127;-75
2021/03/11 09:01:49;;;;;;;11.45;2.95;;;12.30;69.80;;;;;;5071766;28;20059;-76
2021/03/11 09:04:39;;;;;;;14.85;2.90;;;12.20;70.00;;;;;;5055182;28;20063;-76
2021/03/11 09:07:10;;;;;;;12.82;3.28;;;12.30;69.30;;;;;;5055320;28;20060;-76
2021/03/11 09:09:49;;;;;;;13.73;3.30;;;12.30;69.40;;;;;;5055086;28;20044;-73
2021/03/11 09:12:20;;;;;;;23.55;3.60;;;12.30;68.90;;;;;;5054639;28;20020;-72
2021/03/11 09:14:54;;;;;;;25.92;5.00;;;12.30;67.90;;;;;;5054694;28;20116;-73
2021/03/11 09:17:22;;;;;;;14.82;3.63;;;12.30;67.60;;;;;;5054679;28;20041;-73
2021/03/11 09:19:50;;;;;;;17.10;3.50;;;12.30;67.80;;;;;;5071123;28;20040;-74
2021/03/11 09:22:19;;;;;;;18.33;3.90;;;12.30;68.30;;;;;;5071243;28;20036;-73
2021/03/11 09:25:04;;;;;;;22.58;4.20;;;12.30;68.30;;;;;;5054299;28;20554;-74
2021/03/11 09:27:32;;;;;;;24.50;4.95;;;12.40;67.70;;;;;;5054410;28;20028;-73
2021/03/11 09:29:59;;;;;;;18.80;3.72;;;12.40;66.60;;;;;;5071202;28;20531;-74
2021/03/11 09:32:33;;;;;;;24.38;4.55;;;12.40;66.50;;;;;;5071557;28;20468;-72
2021/03/11 09:35:01;;;;;;;16.70;4.30;;;12.40;66.30;;;;;;5054424;28;20036;-73
2021/03/11 09:37:46;;;;;;;23.35;4.70;;;12.50;66.40;;;;;;5072568;28;20025;-73
2021/03/11 09:40:17;;;;;;;17.38;4.05;;;12.50;65.90;;;;;;5073064;28;20366;-73
2021/03/11 09:43:20;;;;;;;17.10;4.50;;;12.50;65.50;;;;;;5071728;28;20028;-73
2021/03/11 09:46:02;;;;;;;22.55;4.43;;;12.60;65.30;;;;;;5071384;28;20032;-73
2021/03/11 09:48:43;;;;;;;25.35;5.18;;;12.60;63.50;;;;;;5071506;28;20036;-74
2021/03/11 09:51:12;;;;;;;26.75;5.13;;;12.60;62.40;;;;;;5073170;28;20036;-73
2021/03/11 09:53:45;;;;;;;20.73;3.92;;;12.60;63.00;;;;;;5071623;28;20036;-74
2021/03/11 09:56:14;;;;;;;24.73;5.70;;;12.60;64.00;;;;;;5071562;28;20487;-73
2021/03/11 09:59:00;;;;;;;19.55;4.53;;;12.60;63.20;;;;;;5072891;28;20028;-73
2021/03/11 10:01:39;;;;;;;18.38;4.93;;;12.60;63.10;;;;;;5072406;28;20063;-73
2021/03/11 10:04:28;;;;;;;26.52;5.18;;;12.60;63.30;;;;;;5071476;28;20349;-74
2021/03/11 10:06:54;;;;;;;19.58;4.63;;;12.60;61.60;;;;;;5071192;28;20039;-73
2021/03/11 10:09:22;;;;;;;17.27;3.92;;;12.60;62.00;;;;;;5071066;28;20119;-74
2021/03/11 10:11:50;;;;;;;20.70;4.43;;;12.60;62.20;;;;;;5071402;28;20422;-73
2021/03/11 10:14:24;;;;;;;18.52;4.50;;;12.60;62.30;;;;;;5071228;28;20433;-73
2021/03/11 10:17:03;;;;;;;25.52;5.03;;;12.60;62.60;;;;;;5072822;28;20044;-73
2021/03/11 10:19:30;;;;;;;19.73;4.18;;;12.50;62.30;;;;;;5072605;28;20033;-73
2021/03/11 10:22:07;;;;;;;21.27;4.57;;;12.50;62.30;;;;;;5072890;28;20040;-73
2021/03/11 10:24:42;;;;;;;18.63;4.32;;;12.50;62.30;;;;;;5071063;28;20060;-73
2021/03/11 10:27:17;;;;;;;23.52;5.18;;;12.50;62.80;;;;;;5071179;28;20541;-73
2021/03/11 10:29:44;;;;;;;23.30;5.22;;;12.60;62.40;;;;;;5072253;28;20016;-73
2021/03/11 10:32:09;;;;;;;23.73;4.70;;;12.60;62.60;;;;;;5071117;28;20048;-74
2021/03/11 10:34:48;;;;;;;26.15;5.13;;;12.60;62.70;;;;;;5071012;28;20423;-74
2021/03/11 10:37:28;;;;;;;19.58;4.50;;;12.60;62.40;;;;;;5071125;28;20388;-74
2021/03/11 10:39:56;;;;;;;18.95;4.57;;;12.60;63.10;;;;;;5072356;28;20476;-74
2021/03/11 10:42:23;;;;;;;17.17;3.78;;;12.60;63.60;;;;;;5072497;28;20033;-74
2021/03/11 10:45:02;;;;;;;19.95;4.32;;;12.60;64.00;;;;;;5071139;28;20054;-74
2021/03/11 10:47:28;;;;;;;23.27;5.65;;;12.60;62.90;;;;;;5072303;28;20392;-74
2021/03/11 10:49:55;;;;;;;25.02;5.18;;;12.60;62.50;;;;;;5073168;28;20039;-74
2021/03/11 10:52:21;;;;;;;22.95;4.90;;;12.60;62.80;;;;;;5076264;28;20038;-74
2021/03/11 10:54:47;;;;;;;32.50;5.03;;;12.60;62.70;;;;;;5075133;28;20033;-74
2021/03/11 10:57:19;;;;;;;25.55;5.13;;;12.60;62.80;;;;;;5074970;28;20028;-74
2021/03/11 10:59:59;;;;;;;20.70;4.85;;;12.60;63.00;;;;;;5074694;28;20020;-74
2021/03/11 11:02:29;;;;;;;22.10;4.40;;;12.60;63.40;;;;;;5074818;28;20059;-74
2021/03/11 11:04:58;;;;;;;28.23;5.80;;;12.60;63.00;;;;;;5076099;28;20099;-74
2021/03/11 11:07:25;;;;;;;28.17;6.05;;;12.60;63.30;;;;;;5076344;28;20124;-74
2021/03/11 11:09:52;;;;;;;23.63;5.22;;;12.60;63.70;;;;;;5074304;28;20072;-74
2021/03/11 11:12:19;;;;;;;21.70;4.85;;;12.60;63.40;;;;;;5074620;28;20495;-74
2021/03/11 11:14:46;;;;;;;21.73;5.35;;;12.50;63.70;;;;;;5074222;28;20051;-74
2021/03/11 11:17:12;;;;;;;15.05;4.15;;;12.50;63.70;;;;;;5074290;28;20086;-74
2021/03/11 11:19:39;;;;;;;23.48;4.63;;;12.50;64.10;;;;;;5075672;28;20029;-74
2021/03/11 11:22:06;;;;;;;24.48;5.38;;;12.50;64.20;;;;;;5075602;28;20040;-74
2021/03/11 11:24:32;;;;;;;24.83;4.90;;;12.50;64.50;;;;;;5075493;28;20024;-73
2021/03/11 11:26:57;;;;;;;19.50;4.28;;;12.50;64.40;;;;;;5074039;28;20020;-74
2021/03/11 11:29:24;;;;;;;31.38;5.05;;;12.40;64.70;;;;;;5073917;28;20046;-74
2021/03/11 11:31:51;;;;;;;21.40;4.78;;;12.40;64.40;;;;;;5075381;28;20104;-74
2021/03/11 11:34:19;;;;;;;19.27;3.83;;;12.50;64.20;;;;;;5075376;28;20024;-74
2021/03/11 11:36:45;;;;;;;20.92;3.92;;;12.50;62.90;;;;;;5073913;28;20119;-73
2021/03/11 11:39:10;;;;;;;19.17;3.95;;;12.50;62.70;;;;;;5073787;28;20024;-73
2021/03/11 11:41:40;;;;;;;21.42;4.72;;;12.50;62.70;;;;;;5075151;28;20162;-73
2021/03/11 11:44:07;;;;;;;21.30;4.03;;;12.50;62.50;;;;;;5073914;28;20025;-72
2021/03/11 11:46:33;;;;;;;15.43;4.25;;;12.50;62.40;;;;;;5075089;28;20024;-73
2021/03/11 11:48:59;;;;;;;18.30;3.78;;;12.50;62.40;;;;;;5075213;28;20385;-74
2021/03/11 11:51:25;;;;;;;17.98;4.10;;;12.50;62.80;;;;;;5073408;28;20029;-73
2021/03/11 11:53:51;;;;;;;34.85;5.03;;;12.50;63.00;;;;;;5073552;28;20039;-74
2021/03/11 11:56:17;;;;;;;25.58;4.72;;;12.60;62.10;;;;;;5073778;28;20036;-73
2021/03/11 11:58:45;;;;;;;21.25;3.75;;;12.60;62.00;;;;;;5073323;28;20024;-73
2021/03/11 12:01:15;;;;;;;18.65;3.90;;;12.60;62.00;;;;;;5072941;28;20552;-74
2021/03/11 12:03:41;;;;;;;18.30;3.95;;;12.70;62.00;;;;;;5075366;28;20052;-74
2021/03/11 12:06:07;;;;;;;24.27;4.20;;;12.60;61.80;;;;;;5073462;28;20025;-73
2021/03/11 12:08:33;;;;;;;15.25;3.90;;;12.60;62.00;;;;;;5074531;28;20035;-74
2021/03/11 12:10:59;;;;;;;16.48;4.20;;;12.70;62.50;;;;;;5075052;28;20040;-74
2021/03/11 12:13:25;;;;;;;20.20;4.13;;;12.70;62.10;;;;;;5073446;28;20032;-74
2021/03/11 12:15:50;;;;;;;23.17;4.47;;;12.70;61.90;;;;;;5073110;28;20021;-73
2021/03/11 12:18:16;;;;;;;17.35;3.67;;;12.80;60.90;;;;;;5074639;28;20486;-73
2021/03/11 12:20:42;;;;;;;13.45;2.90;;;12.80;61.00;;;;;;5073016;28;20127;-73
2021/03/11 12:23:07;;;;;;;21.33;4.35;;;12.80;60.70;;;;;;5073072;28;20141;-74
2021/03/11 12:25:34;;;;;;;16.98;3.47;;;12.90;60.10;;;;;;5074322;28;20028;-74
2021/03/11 12:28:00;;;;;;;13.57;3.40;;;12.80;59.90;;;;;;5073001;28;20499;-72
2021/03/11 12:30:26;;;;;;;19.10;4.13;;;12.80;60.60;;;;;;5073029;28;20120;-73
2021/03/11 12:32:52;;;;;;;20.38;4.00;;;12.70;60.20;;;;;;5074704;28;20021;-73
2021/03/11 12:35:18;;;;;;;16.30;4.07;;;12.70;60.60;;;;;;5074300;28;20032;-73
2021/03/11 12:37:44;;;;;;;13.73;3.92;;;12.70;60.70;;;;;;5074642;28;20404;-73
2021/03/11 12:40:11;;;;;;;24.73;3.97;;;12.70;60.70;;;;;;5072825;28;20024;-73
2021/03/11 12:42:41;;;;;;;15.80;3.47;;;12.80;61.00;;;;;;5074031;28;20098;-73
2021/03/11 12:45:08;;;;;;;18.60;3.97;;;12.90;61.40;;;;;;5072466;28;20107;-74
2021/03/11 12:47:33;;;;;;;19.33;3.50;;;12.90;60.80;;;;;;5073676;28;20036;-74
2021/03/11 12:49:59;;;;;;;18.70;3.30;;;13.00;60.80;;;;;;5073891;28;20112;-73
2021/03/11 12:52:24;;;;;;;20.38;3.72;;;12.90;60.60;;;;;;5073482;28;20090;-73
2021/03/11 12:54:50;;;;;;;20.55;3.63;;;13.00;60.60;;;;;;5073561;28;20059;-73